Hardy, Kentucky
Current Conditions -  °F | °C
As of 5:15 AM on Friday 19 Dec 2014 (Local Time) from KPBX Reporting Station
Overcast Overcast  
Wind Chill: 24°   Ceiling: 1300
Heat Index: 29°   Visibility: 10mi
Dew Point: 25°   Wind: 5mph
Humidity: 86%   Direction: 350°N
Pressure: 30.19"   Gusts: NA
Location:  37.62°N, 82.24°W
Report Text: KPBX 191015Z AUTO 35004KT 10SM BKN013 OVC060 M02/M04 A3019 RMK AO2 T10171037
Loading
Personal Weather Stations






























Interactive Weather Map New forecast layout! Learn more

10-Day Weather Forecast

Advertisements
Track Severe Weather on mobile